sensor_id;sensor_type;location;lat;lon;timestamp;pressure;altitude;pressure_sealevel;temperature;humidity
13553;BME280;6847;48.830;9.116;2023-09-19T00:01:14;97513.31;;;21.03;56.33
13553;BME280;6847;48.830;9.116;2023-09-19T00:03:45;97516.47;;;21.05;56.37
13553;BME280;6847;48.830;9.116;2023-09-19T00:06:15;97520.81;;;21.06;56.38
13553;BME280;6847;48.830;9.116;2023-09-19T00:08:42;97522.72;;;21.02;56.54
13553;BME280;6847;48.830;9.116;2023-09-19T00:11:09;97522.25;;;21.00;56.78
13553;BME280;6847;48.830;9.116;2023-09-19T00:13:36;97532.81;;;20.98;56.90
13553;BME280;6847;48.830;9.116;2023-09-19T00:16:08;97539.13;;;20.99;56.59
13553;BME280;6847;48.830;9.116;2023-09-19T00:18:39;97539.91;;;20.99;56.69
13553;BME280;6847;48.830;9.116;2023-09-19T00:21:09;97524.72;;;20.90;56.95
13553;BME280;6847;48.830;9.116;2023-09-19T00:23:45;97547.03;;;21.00;56.69
13553;BME280;6847;48.830;9.116;2023-09-19T00:26:13;97539.22;;;21.02;56.77
13553;BME280;6847;48.830;9.116;2023-09-19T00:28:43;97546.34;;;21.03;56.69
13553;BME280;6847;48.830;9.116;2023-09-19T00:31:09;97552.53;;;21.00;56.87
13553;BME280;6847;48.830;9.116;2023-09-19T00:33:39;97539.22;;;21.02;57.13
13553;BME280;6847;48.830;9.116;2023-09-19T00:36:06;97549.50;;;21.05;56.94
13553;BME280;6847;48.830;9.116;2023-09-19T00:38:33;97546.34;;;21.03;56.74
13553;BME280;6847;48.830;9.116;2023-09-19T00:41:01;97549.44;;;21.02;56.90
13553;BME280;6847;48.830;9.116;2023-09-19T00:43:30;97545.88;;;21.01;56.91
13553;BME280;6847;48.830;9.116;2023-09-19T00:45:59;97556.88;;;21.01;56.90
13553;BME280;6847;48.830;9.116;2023-09-19T00:48:28;97419.59;;;20.09;56.92
13553;BME280;6847;48.830;9.116;2023-09-19T00:50:58;97555.56;;;20.95;56.97
13553;BME280;6847;48.830;9.116;2023-09-19T00:53:30;97548.25;;;20.87;56.99
13553;BME280;6847;48.830;9.116;2023-09-19T00:55:58;97560.06;;;20.88;57.08
13553;BME280;6847;48.830;9.116;2023-09-19T00:58:26;97574.63;;;20.88;57.10
13553;BME280;6847;48.830;9.116;2023-09-19T01:00:59;97569.38;;;20.83;57.07
13553;BME280;6847;48.830;9.116;2023-09-19T01:03:27;97525.47;;;20.59;57.20
13553;BME280;6847;48.830;9.116;2023-09-19T01:05:54;97567.09;;;20.85;57.14
13553;BME280;6847;48.830;9.116;2023-09-19T01:08:24;97570.97;;;20.84;57.11
13553;BME280;6847;48.830;9.116;2023-09-19T01:10:59;97579.59;;;20.83;57.27
13553;BME280;6847;48.830;9.116;2023-09-19T01:13:41;97571.78;;;20.85;57.23
13553;BME280;6847;48.830;9.116;2023-09-19T01:16:17;97585.88;;;20.83;57.20
13553;BME280;6847;48.830;9.116;2023-09-19T01:18:49;97584.28;;;20.82;57.19
13553;BME280;6847;48.830;9.116;2023-09-19T01:21:23;97578.31;;;20.80;57.41
13553;BME280;6847;48.830;9.116;2023-09-19T01:24:22;97589.34;;;20.80;57.44
13553;BME280;6847;48.830;9.116;2023-09-19T01:27:30;97595.09;;;20.75;57.46
13553;BME280;6847;48.830;9.116;2023-09-19T01:30:14;97588.00;;;20.74;57.50
13553;BME280;6847;48.830;9.116;2023-09-19T01:32:41;97591.44;;;20.71;57.52
13553;BME280;6847;48.830;9.116;2023-09-19T01:35:11;97545.94;;;20.46;57.31
13553;BME280;6847;48.830;9.116;2023-09-19T01:37:38;97525.34;;;20.27;57.61
13553;BME280;6847;48.830;9.116;2023-09-19T01:40:10;97588.94;;;20.66;57.56
13553;BME280;6847;48.830;9.116;2023-09-19T01:42:53;97595.59;;;20.65;57.75
13553;BME280;6847;48.830;9.116;2023-09-19T01:45:31;97597.91;;;20.63;57.57
13553;BME280;6847;48.830;9.116;2023-09-19T01:48:11;97596.28;;;20.62;57.68
13553;BME280;6847;48.830;9.116;2023-09-19T01:50:50;97589.88;;;20.58;57.70
13553;BME280;6847;48.830;9.116;2023-09-19T01:53:25;97593.78;;;20.57;57.63
13553;BME280;6847;48.830;9.116;2023-09-19T01:55:57;97596.09;;;20.55;57.68
13553;BME280;6847;48.830;9.116;2023-09-19T01:58:30;97604.78;;;20.57;57.60
13553;BME280;6847;48.830;9.116;2023-09-19T02:01:01;97609.59;;;20.60;57.62
13553;BME280;6847;48.830;9.116;2023-09-19T02:03:31;97604.78;;;20.57;57.62
13553;BME280;6847;48.830;9.116;2023-09-19T02:05:58;97615.00;;;20.56;57.60
13553;BME280;6847;48.830;9.116;2023-09-19T02:08:25;97609.38;;;20.53;57.78
13553;BME280;6847;48.830;9.116;2023-09-19T02:10:52;97597.53;;;20.37;57.74
13553;BME280;6847;48.830;9.116;2023-09-19T02:13:20;97615.38;;;20.43;57.92
13553;BME280;6847;48.830;9.116;2023-09-19T02:15:47;97613.31;;;20.40;57.91
13553;BME280;6847;48.830;9.116;2023-09-19T02:18:16;97615.59;;;20.38;57.68
13553;BME280;6847;48.830;9.116;2023-09-19T02:20:43;97608.28;;;20.29;57.99
13553;BME280;6847;48.830;9.116;2023-09-19T02:23:12;97619.06;;;20.35;58.01
13553;BME280;6847;48.830;9.116;2023-09-19T02:26:04;97617.44;;;20.33;57.91
13553;BME280;6847;48.830;9.116;2023-09-19T02:28:31;97622.00;;;20.29;58.01
13553;BME280;6847;48.830;9.116;2023-09-19T02:30:59;97617.22;;;20.26;57.91
13553;BME280;6847;48.830;9.116;2023-09-19T02:33:27;97624.22;;;20.24;58.04
13553;BME280;6847;48.830;9.116;2023-09-19T02:35:58;97623.88;;;20.25;58.08
13553;BME280;6847;48.830;9.116;2023-09-19T02:38:24;97602.59;;;20.10;58.04
13553;BME280;6847;48.830;9.116;2023-09-19T02:40:51;97587.50;;;19.92;58.07
13553;BME280;6847;48.830;9.116;2023-09-19T02:43:18;97586.34;;;19.93;57.96
13553;BME280;6847;48.830;9.116;2023-09-19T02:45:48;97633.59;;;20.23;58.27
13553;BME280;6847;48.830;9.116;2023-09-19T02:48:18;97636.00;;;20.24;58.03
13553;BME280;6847;48.830;9.116;2023-09-19T02:50:49;97605.59;;;20.05;57.99
13553;BME280;6847;48.830;9.116;2023-09-19T02:53:16;97648.81;;;20.32;57.89
13553;BME280;6847;48.830;9.116;2023-09-19T02:55:44;97642.19;;;20.33;57.85
13553;BME280;6847;48.830;9.116;2023-09-19T02:58:11;97621.69;;;20.19;57.91
13553;BME280;6847;48.830;9.116;2023-09-19T03:00:39;97650.66;;;20.41;57.93
13553;BME280;6847;48.830;9.116;2023-09-19T03:03:09;97652.38;;;20.45;57.77
13553;BME280;6847;48.830;9.116;2023-09-19T03:05:36;97663.47;;;20.49;57.96
13553;BME280;6847;48.830;9.116;2023-09-19T03:08:05;97650.19;;;20.51;57.89
13553;BME280;6847;48.830;9.116;2023-09-19T03:10:32;97607.03;;;20.27;57.61
13553;BME280;6847;48.830;9.116;2023-09-19T03:12:59;97654.75;;;20.59;57.75
13553;BME280;6847;48.830;9.116;2023-09-19T03:15:26;97659.22;;;20.63;57.66
13553;BME280;6847;48.830;9.116;2023-09-19T03:18:03;97656.13;;;20.65;57.70
13553;BME280;6847;48.830;9.116;2023-09-19T03:20:29;97651.84;;;20.67;57.74
13553;BME280;6847;48.830;9.116;2023-09-19T03:22:58;97665.72;;;20.71;57.59
13553;BME280;6847;48.830;9.116;2023-09-19T03:25:27;97513.59;;;19.75;57.69
13553;BME280;6847;48.830;9.116;2023-09-19T03:27:56;97659.53;;;20.74;57.61
13553;BME280;6847;48.830;9.116;2023-09-19T03:30:23;97655.63;;;20.75;57.46
13553;BME280;6847;48.830;9.116;2023-09-19T03:32:50;97661.56;;;20.77;57.62
13553;BME280;6847;48.830;9.116;2023-09-19T03:35:17;97650.56;;;20.77;57.46
13553;BME280;6847;48.830;9.116;2023-09-19T03:37:46;97660.63;;;20.85;57.54
13553;BME280;6847;48.830;9.116;2023-09-19T03:40:13;97665.88;;;20.90;57.40
13553;BME280;6847;48.830;9.116;2023-09-19T03:42:42;97643.91;;;20.78;57.45
13553;BME280;6847;48.830;9.116;2023-09-19T03:45:09;97555.16;;;20.25;57.26
13553;BME280;6847;48.830;9.116;2023-09-19T03:47:38;97643.91;;;20.78;57.37
13553;BME280;6847;48.830;9.116;2023-09-19T03:50:05;97665.66;;;20.95;57.36
13553;BME280;6847;48.830;9.116;2023-09-19T03:52:32;97665.25;;;20.97;57.57
13553;BME280;6847;48.830;9.116;2023-09-19T03:55:02;97643.66;;;20.83;57.20
13553;BME280;6847;48.830;9.116;2023-09-19T03:57:29;97664.47;;;20.96;57.57
13553;BME280;6847;48.830;9.116;2023-09-19T03:59:58;97668.41;;;20.95;57.59
13553;BME280;6847;48.830;9.116;2023-09-19T04:02:24;97666.34;;;20.92;57.56
13553;BME280;6847;48.830;9.116;2023-09-19T04:04:51;97670.47;;;20.86;57.76
13553;BME280;6847;48.830;9.116;2023-09-19T04:07:19;97560.00;;;20.04;57.85
13553;BME280;6847;48.830;9.116;2023-09-19T04:09:47;97669.41;;;20.63;58.15
13553;BME280;6847;48.830;9.116;2023-09-19T04:12:15;97653.19;;;20.46;58.23
13553;BME280;6847;48.830;9.116;2023-09-19T04:14:43;97666.47;;;20.44;58.61
13553;BME280;6847;48.830;9.116;2023-09-19T04:17:13;97664.66;;;20.36;58.74
13553;BME280;6847;48.830;9.116;2023-09-19T04:19:40;97664.31;;;20.25;58.85
13553;BME280;6847;48.830;9.116;2023-09-19T04:22:06;97666.47;;;20.19;58.94
13553;BME280;6847;48.830;9.116;2023-09-19T04:24:35;97562.78;;;19.43;58.92
13553;BME280;6847;48.830;9.116;2023-09-19T04:27:03;97564.94;;;19.38;59.16
13553;BME280;6847;48.830;9.116;2023-09-19T04:29:33;97569.75;;;19.41;59.13
13553;BME280;6847;48.830;9.116;2023-09-19T04:32:03;97674.03;;;20.10;59.11
13553;BME280;6847;48.830;9.116;2023-09-19T04:34:32;97674.03;;;20.10;58.94
13553;BME280;6847;48.830;9.116;2023-09-19T04:36:59;97674.97;;;20.14;59.02
13553;BME280;6847;48.830;9.116;2023-09-19T04:39:27;97684.47;;;20.17;59.00
13553;BME280;6847;48.830;9.116;2023-09-19T04:41:54;97679.88;;;20.21;59.22
13553;BME280;6847;48.830;9.116;2023-09-19T04:44:22;97650.22;;;20.02;59.32
13553;BME280;6847;48.830;9.116;2023-09-19T04:47:03;97684.00;;;20.27;59.00
13553;BME280;6847;48.830;9.116;2023-09-19T04:49:38;97697.38;;;20.28;59.11
13553;BME280;6847;48.830;9.116;2023-09-19T04:52:05;97699.00;;;20.29;59.32
13553;BME280;6847;48.830;9.116;2023-09-19T04:54:31;97704.97;;;20.31;59.30
13553;BME280;6847;48.830;9.116;2023-09-19T04:56:59;97707.72;;;20.31;59.52
13553;BME280;6847;48.830;9.116;2023-09-19T04:59:25;97612.00;;;19.61;59.60
13553;BME280;6847;48.830;9.116;2023-09-19T05:01:53;97720.91;;;20.26;59.59
13553;BME280;6847;48.830;9.116;2023-09-19T05:04:21;97721.22;;;20.12;59.98
13553;BME280;6847;48.830;9.116;2023-09-19T05:06:50;97509.00;;;18.61;59.95
13553;BME280;6847;48.830;9.116;2023-09-19T05:09:17;97726.03;;;19.91;60.15
13553;BME280;6847;48.830;9.116;2023-09-19T05:11:45;97718.91;;;19.90;60.35
13553;BME280;6847;48.830;9.116;2023-09-19T05:14:14;97732.22;;;19.88;60.52
13553;BME280;6847;48.830;9.116;2023-09-19T05:16:40;97733.13;;;19.92;60.42
13553;BME280;6847;48.830;9.116;2023-09-19T05:19:07;97735.19;;;19.95;60.26
13553;BME280;6847;48.830;9.116;2023-09-19T05:21:37;97743.53;;;19.99;60.34
13553;BME280;6847;48.830;9.116;2023-09-19T05:24:06;97750.53;;;19.96;60.30
13553;BME280;6847;48.830;9.116;2023-09-19T05:26:34;97760.38;;;19.85;60.65
13553;BME280;6847;48.830;9.116;2023-09-19T05:29:01;97705.38;;;19.48;60.89
13553;BME280;6847;48.830;9.116;2023-09-19T05:31:28;97751.41;;;19.76;61.08
13553;BME280;6847;48.830;9.116;2023-09-19T05:33:55;97753.22;;;19.72;61.86
13553;BME280;6847;48.830;9.116;2023-09-19T05:36:23;97759.88;;;19.71;62.99
13553;BME280;6847;48.830;9.116;2023-09-19T05:38:50;97612.94;;;18.74;63.59
13553;BME280;6847;48.830;9.116;2023-09-19T05:41:20;97761.47;;;19.72;64.64
13553;BME280;6847;48.830;9.116;2023-09-19T05:43:50;97659.31;;;19.00;65.05
13553;BME280;6847;48.830;9.116;2023-09-19T05:46:16;97779.09;;;19.58;65.60
13553;BME280;6847;48.830;9.116;2023-09-19T05:48:43;97774.13;;;19.52;65.84
13553;BME280;6847;48.830;9.116;2023-09-19T05:51:16;97775.59;;;19.49;65.97
13553;BME280;6847;48.830;9.116;2023-09-19T05:53:43;97774.84;;;19.40;66.19
13553;BME280;6847;48.830;9.116;2023-09-19T05:56:15;97783.34;;;19.47;66.16
13553;BME280;6847;48.830;9.116;2023-09-19T05:58:48;97771.47;;;19.22;65.93
13553;BME280;6847;48.830;9.116;2023-09-19T06:01:17;97798.72;;;19.28;65.98
13553;BME280;6847;48.830;9.116;2023-09-19T06:03:44;97807.34;;;19.17;66.00
13553;BME280;6847;48.830;9.116;2023-09-19T06:06:11;97804.78;;;19.12;65.97
13553;BME280;6847;48.830;9.116;2023-09-19T06:08:39;97805.28;;;19.14;65.71
13553;BME280;6847;48.830;9.116;2023-09-19T06:11:09;97790.47;;;19.07;65.02
13553;BME280;6847;48.830;9.116;2023-09-19T06:13:36;97812.97;;;19.21;65.25
13553;BME280;6847;48.830;9.116;2023-09-19T06:16:07;97807.78;;;19.19;64.80
13553;BME280;6847;48.830;9.116;2023-09-19T06:18:35;97709.53;;;18.59;64.83
13553;BME280;6847;48.830;9.116;2023-09-19T06:21:02;97805.50;;;19.09;65.10
13553;BME280;6847;48.830;9.116;2023-09-19T06:23:33;97809.22;;;19.05;64.95
13553;BME280;6847;48.830;9.116;2023-09-19T06:26:00;97779.81;;;18.84;64.56
13553;BME280;6847;48.830;9.116;2023-09-19T06:28:27;97808.56;;;19.08;64.78
13553;BME280;6847;48.830;9.116;2023-09-19T06:30:58;97807.22;;;19.14;64.70
13553;BME280;6847;48.830;9.116;2023-09-19T06:33:28;97803.06;;;19.29;64.46
13553;BME280;6847;48.830;9.116;2023-09-19T06:35:56;97806.66;;;19.41;64.12
13553;BME280;6847;48.830;9.116;2023-09-19T06:38:25;97811.75;;;19.51;63.88
13553;BME280;6847;48.830;9.116;2023-09-19T06:40:58;97817.44;;;19.67;63.74
13553;BME280;6847;48.830;9.116;2023-09-19T06:43:36;97820.81;;;19.85;63.55
13553;BME280;6847;48.830;9.116;2023-09-19T06:46:06;97819.47;;;20.03;63.15
13553;BME280;6847;48.830;9.116;2023-09-19T06:48:35;97819.75;;;20.22;63.17
13553;BME280;6847;48.830;9.116;2023-09-19T06:51:02;97800.25;;;20.27;62.93
13553;BME280;6847;48.830;9.116;2023-09-19T06:53:34;97790.91;;;20.41;62.63
13553;BME280;6847;48.830;9.116;2023-09-19T06:56:01;97827.31;;;20.86;62.54
13553;BME280;6847;48.830;9.116;2023-09-19T06:58:29;97824.56;;;20.98;62.37
13553;BME280;6847;48.830;9.116;2023-09-19T07:01:00;97838.53;;;21.18;62.09
13553;BME280;6847;48.830;9.116;2023-09-19T07:03:29;97669.78;;;20.49;61.44
13553;BME280;6847;48.830;9.116;2023-09-19T07:05:59;97750.22;;;21.66;60.28
13553;BME280;6847;48.830;9.116;2023-09-19T07:08:26;97843.16;;;22.57;60.01
13553;BME280;6847;48.830;9.116;2023-09-19T07:10:56;97781.44;;;22.30;60.01
13553;BME280;6847;48.830;9.116;2023-09-19T07:13:23;97734.25;;;21.88;59.98
13553;BME280;6847;48.830;9.116;2023-09-19T07:15:50;97869.88;;;22.68;60.31
13553;BME280;6847;48.830;9.116;2023-09-19T07:18:19;97863.81;;;22.63;60.76
13553;BME280;6847;48.830;9.116;2023-09-19T07:20:47;97862.22;;;22.62;60.76
13553;BME280;6847;48.830;9.116;2023-09-19T07:23:20;97839.69;;;22.44;60.80
13553;BME280;6847;48.830;9.116;2023-09-19T07:25:49;97867.75;;;22.62;60.58
13553;BME280;6847;48.830;9.116;2023-09-19T07:28:18;97871.84;;;22.68;60.46
13553;BME280;6847;48.830;9.116;2023-09-19T07:30:49;97767.38;;;22.03;60.48
13553;BME280;6847;48.830;9.116;2023-09-19T07:33:18;97702.22;;;21.67;60.18
13553;BME280;6847;48.830;9.116;2023-09-19T07:35:57;97771.72;;;22.36;59.56
13553;BME280;6847;48.830;9.116;2023-09-19T07:38:32;97888.81;;;23.52;58.82
13553;BME280;6847;48.830;9.116;2023-09-19T07:41:00;97890.41;;;24.11;57.81
13553;BME280;6847;48.830;9.116;2023-09-19T07:43:30;97889.44;;;24.87;56.60
13553;BME280;6847;48.830;9.116;2023-09-19T07:45:57;97889.31;;;25.56;55.70
13553;BME280;6847;48.830;9.116;2023-09-19T07:48:25;97893.16;;;26.11;54.81
13553;BME280;6847;48.830;9.116;2023-09-19T07:50:53;97894.31;;;26.40;55.01
13553;BME280;6847;48.830;9.116;2023-09-19T07:53:20;97890.91;;;26.57;55.00
13553;BME280;6847;48.830;9.116;2023-09-19T07:55:48;97889.38;;;26.63;54.82
13553;BME280;6847;48.830;9.116;2023-09-19T07:58:15;97886.28;;;26.75;54.75
13553;BME280;6847;48.830;9.116;2023-09-19T08:00:42;97899.59;;;26.96;54.51
13553;BME280;6847;48.830;9.116;2023-09-19T08:03:08;97904.47;;;27.72;53.39
13553;BME280;6847;48.830;9.116;2023-09-19T08:05:40;97879.31;;;28.55;52.17
13553;BME280;6847;48.830;9.116;2023-09-19T08:08:08;97910.69;;;29.83;50.15
13553;BME280;6847;48.830;9.116;2023-09-19T08:10:35;97916.97;;;30.85;49.17
13553;BME280;6847;48.830;9.116;2023-09-19T08:13:06;97915.31;;;31.80;47.91
13553;BME280;6847;48.830;9.116;2023-09-19T08:15:43;97903.41;;;32.37;47.55
13553;BME280;6847;48.830;9.116;2023-09-19T08:18:10;97911.22;;;32.80;47.37
13553;BME280;6847;48.830;9.116;2023-09-19T08:20:37;97928.22;;;32.92;47.79
13553;BME280;6847;48.830;9.116;2023-09-19T08:23:05;97922.22;;;32.94;47.93
13553;BME280;6847;48.830;9.116;2023-09-19T08:25:33;97927.47;;;33.15;47.34
13553;BME280;6847;48.830;9.116;2023-09-19T08:28:06;97872.34;;;33.05;47.05
13553;BME280;6847;48.830;9.116;2023-09-19T08:30:37;97930.16;;;33.69;46.76
13553;BME280;6847;48.830;9.116;2023-09-19T08:33:05;97936.16;;;33.48;47.54
13553;BME280;6847;48.830;9.116;2023-09-19T08:35:33;97937.19;;;33.57;46.99
13553;BME280;6847;48.830;9.116;2023-09-19T08:38:00;97932.47;;;33.51;46.92
13553;BME280;6847;48.830;9.116;2023-09-19T08:40:29;97936.25;;;33.17;47.35
13553;BME280;6847;48.830;9.116;2023-09-19T08:42:59;97936.91;;;32.14;49.02
13553;BME280;6847;48.830;9.116;2023-09-19T08:45:27;97939.94;;;31.14;50.03
13553;BME280;6847;48.830;9.116;2023-09-19T08:48:03;97938.53;;;30.15;50.76
13553;BME280;6847;48.830;9.116;2023-09-19T08:50:42;97856.66;;;28.74;51.65
13553;BME280;6847;48.830;9.116;2023-09-19T08:53:11;97946.25;;;29.04;51.18
13553;BME280;6847;48.830;9.116;2023-09-19T08:55:40;97875.72;;;28.37;50.54
13553;BME280;6847;48.830;9.116;2023-09-19T08:58:10;97938.59;;;28.52;50.39
13553;BME280;6847;48.830;9.116;2023-09-19T09:00:41;97937.13;;;29.07;49.23
13553;BME280;6847;48.830;9.116;2023-09-19T09:03:11;97939.97;;;30.44;46.38
13553;BME280;6847;48.830;9.116;2023-09-19T09:05:41;97941.50;;;30.60;45.95
13553;BME280;6847;48.830;9.116;2023-09-19T09:08:12;97940.28;;;30.61;46.17
13553;BME280;6847;48.830;9.116;2023-09-19T09:10:40;97927.09;;;30.65;45.60
13553;BME280;6847;48.830;9.116;2023-09-19T09:13:07;97947.22;;;31.49;44.21
13553;BME280;6847;48.830;9.116;2023-09-19T09:15:35;97762.56;;;30.70;43.50
13553;BME280;6847;48.830;9.116;2023-09-19T09:18:04;97942.69;;;31.62;44.05
13553;BME280;6847;48.830;9.116;2023-09-19T09:20:35;97950.94;;;30.80;45.16
13553;BME280;6847;48.830;9.116;2023-09-19T09:23:07;97950.16;;;29.81;46.03
13553;BME280;6847;48.830;9.116;2023-09-19T09:25:47;97942.69;;;29.15;46.58
13553;BME280;6847;48.830;9.116;2023-09-19T09:28:19;97946.25;;;29.15;46.49
13553;BME280;6847;48.830;9.116;2023-09-19T09:30:47;97948.50;;;28.42;46.64
13553;BME280;6847;48.830;9.116;2023-09-19T09:33:16;97948.31;;;27.89;47.40
13553;BME280;6847;48.830;9.116;2023-09-19T09:35:51;97863.75;;;28.25;45.34
13553;BME280;6847;48.830;9.116;2023-09-19T09:38:23;97950.63;;;29.48;43.78
13553;BME280;6847;48.830;9.116;2023-09-19T09:40:55;97934.28;;;28.76;44.61
13553;BME280;6847;48.830;9.116;2023-09-19T09:43:28;97920.78;;;27.70;45.47
13553;BME280;6847;48.830;9.116;2023-09-19T09:46:24;97836.28;;;26.28;46.27
13553;BME280;6847;48.830;9.116;2023-09-19T09:49:27;97940.91;;;26.98;46.03
13553;BME280;6847;48.830;9.116;2023-09-19T09:52:00;97944.88;;;27.51;44.94
13553;BME280;6847;48.830;9.116;2023-09-19T09:54:31;97942.13;;;27.04;44.81
13553;BME280;6847;48.830;9.116;2023-09-19T09:57:04;97944.22;;;26.36;45.91
13553;BME280;6847;48.830;9.116;2023-09-19T09:59:47;97836.84;;;25.43;45.72
13553;BME280;6847;48.830;9.116;2023-09-19T10:02:25;97807.47;;;25.35;45.10
13553;BME280;6847;48.830;9.116;2023-09-19T10:04:56;97905.56;;;25.87;45.13
13553;BME280;6847;48.830;9.116;2023-09-19T10:07:41;97948.47;;;25.93;45.30
13553;BME280;6847;48.830;9.116;2023-09-19T10:10:14;97941.72;;;25.64;45.73
13553;BME280;6847;48.830;9.116;2023-09-19T10:12:48;97951.03;;;26.79;43.88
13553;BME280;6847;48.830;9.116;2023-09-19T10:15:16;97939.16;;;27.92;42.23
13553;BME280;6847;48.830;9.116;2023-09-19T10:17:46;97939.97;;;27.96;42.37
13553;BME280;6847;48.830;9.116;2023-09-19T10:20:16;97940.22;;;28.67;41.46
13553;BME280;6847;48.830;9.116;2023-09-19T10:22:50;97934.69;;;29.66;40.49
13553;BME280;6847;48.830;9.116;2023-09-19T10:25:25;97928.72;;;29.57;40.32
13553;BME280;6847;48.830;9.116;2023-09-19T10:27:54;97936.56;;;29.91;40.79
13553;BME280;6847;48.830;9.116;2023-09-19T10:30:23;97935.44;;;30.68;39.83
13553;BME280;6847;48.830;9.116;2023-09-19T10:32:57;97940.28;;;31.19;38.69
13553;BME280;6847;48.830;9.116;2023-09-19T10:35:28;97906.84;;;31.02;39.02
13553;BME280;6847;48.830;9.116;2023-09-19T10:38:00;97934.50;;;31.82;38.35
13553;BME280;6847;48.830;9.116;2023-09-19T10:40:28;97940.78;;;32.27;37.55
13553;BME280;6847;48.830;9.116;2023-09-19T10:43:11;97907.81;;;32.38;37.79
13553;BME280;6847;48.830;9.116;2023-09-19T10:46:00;97946.41;;;33.58;36.58
13553;BME280;6847;48.830;9.116;2023-09-19T10:48:36;97941.72;;;34.14;36.02
13553;BME280;6847;48.830;9.116;2023-09-19T10:54:10;97943.69;;;33.04;36.62
13553;BME280;6847;48.830;9.116;2023-09-19T10:56:42;97941.53;;;32.88;36.78
13553;BME280;6847;48.830;9.116;2023-09-19T10:59:13;97943.75;;;32.43;37.01
13553;BME280;6847;48.830;9.116;2023-09-19T11:01:42;97937.00;;;32.07;37.02
13553;BME280;6847;48.830;9.116;2023-09-19T11:04:24;97941.53;;;31.56;37.34
13553;BME280;6847;48.830;9.116;2023-09-19T11:07:03;97927.22;;;30.36;38.61
13553;BME280;6847;48.830;9.116;2023-09-19T11:09:49;97940.13;;;30.09;38.16
13553;BME280;6847;48.830;9.116;2023-09-19T11:12:48;97927.41;;;30.04;38.19
13553;BME280;6847;48.830;9.116;2023-09-19T11:21:52;97930.13;;;30.88;36.40
13553;BME280;6847;48.830;9.116;2023-09-19T11:24:37;97918.91;;;31.40;35.61
13553;BME280;6847;48.830;9.116;2023-09-19T11:27:24;97925.97;;;31.92;34.90
13553;BME280;6847;48.830;9.116;2023-09-19T11:30:25;97914.91;;;32.46;34.62
13553;BME280;6847;48.830;9.116;2023-09-19T11:33:15;97903.78;;;32.93;33.97
13553;BME280;6847;48.830;9.116;2023-09-19T11:36:02;97859.78;;;32.90;33.52
13553;BME280;6847;48.830;9.116;2023-09-19T11:38:59;97913.53;;;33.35;33.50
13553;BME280;6847;48.830;9.116;2023-09-19T11:41:37;97909.41;;;33.63;33.28
13553;BME280;6847;48.830;9.116;2023-09-19T11:44:33;97917.38;;;33.44;33.43
13553;BME280;6847;48.830;9.116;2023-09-19T11:47:05;97900.06;;;32.19;34.75
13553;BME280;6847;48.830;9.116;2023-09-19T11:49:33;97902.47;;;31.45;35.44
13553;BME280;6847;48.830;9.116;2023-09-19T11:52:05;97906.88;;;30.98;36.01
13553;BME280;6847;48.830;9.116;2023-09-19T11:54:35;97903.03;;;30.81;35.70
13553;BME280;6847;48.830;9.116;2023-09-19T11:57:06;97905.19;;;31.11;35.50
13553;BME280;6847;48.830;9.116;2023-09-19T11:59:38;97812.47;;;30.72;35.08
13553;BME280;6847;48.830;9.116;2023-09-19T12:02:07;97897.28;;;30.99;35.31
13553;BME280;6847;48.830;9.116;2023-09-19T12:04:38;97895.81;;;30.84;35.60
13553;BME280;6847;48.830;9.116;2023-09-19T12:07:07;97886.38;;;30.64;35.24
13553;BME280;6847;48.830;9.116;2023-09-19T12:09:39;97879.13;;;30.73;35.78
13553;BME280;6847;48.830;9.116;2023-09-19T12:12:09;97892.50;;;30.96;35.16
13553;BME280;6847;48.830;9.116;2023-09-19T12:14:38;97883.66;;;31.08;35.19
13553;BME280;6847;48.830;9.116;2023-09-19T12:17:07;97883.44;;;30.81;35.40
13553;BME280;6847;48.830;9.116;2023-09-19T12:19:49;97882.69;;;30.11;35.61
13553;BME280;6847;48.830;9.116;2023-09-19T12:22:16;97878.03;;;29.69;35.92
13553;BME280;6847;48.830;9.116;2023-09-19T12:25:06;97732.09;;;28.21;36.10
13553;BME280;6847;48.830;9.116;2023-09-19T12:27:41;97856.66;;;28.85;36.47
13553;BME280;6847;48.830;9.116;2023-09-19T12:30:12;97756.25;;;27.82;36.58
13553;BME280;6847;48.830;9.116;2023-09-19T12:32:40;97838.28;;;28.23;36.33
13553;BME280;6847;48.830;9.116;2023-09-19T12:35:10;97859.81;;;28.72;36.23
13553;BME280;6847;48.830;9.116;2023-09-19T12:37:37;97862.25;;;28.88;35.67
13553;BME280;6847;48.830;9.116;2023-09-19T12:40:07;97855.09;;;28.87;35.76
13553;BME280;6847;48.830;9.116;2023-09-19T12:42:43;97854.28;;;28.90;35.85
13553;BME280;6847;48.830;9.116;2023-09-19T12:45:12;97849.88;;;29.11;35.38
13553;BME280;6847;48.830;9.116;2023-09-19T12:48:19;97850.94;;;29.73;34.51
13553;BME280;6847;48.830;9.116;2023-09-19T12:51:09;97821.06;;;30.36;34.37
13553;BME280;6847;48.830;9.116;2023-09-19T12:53:57;97848.47;;;31.07;33.67
13553;BME280;6847;48.830;9.116;2023-09-19T12:56:24;97847.03;;;30.92;33.99
13553;BME280;6847;48.830;9.116;2023-09-19T12:58:53;97849.69;;;31.44;33.62
13553;BME280;6847;48.830;9.116;2023-09-19T13:01:25;97849.94;;;32.24;32.96
13553;BME280;6847;48.830;9.116;2023-09-19T13:04:12;97851.72;;;32.92;32.33
13553;BME280;6847;48.830;9.116;2023-09-19T13:06:40;97795.28;;;32.90;32.40
13553;BME280;6847;48.830;9.116;2023-09-19T13:09:12;97855.28;;;33.82;31.63
13553;BME280;6847;48.830;9.116;2023-09-19T13:11:40;97854.41;;;34.25;31.77
13553;BME280;6847;48.830;9.116;2023-09-19T13:14:19;97857.59;;;34.43;31.85
13553;BME280;6847;48.830;9.116;2023-09-19T13:16:56;97850.38;;;34.42;31.93
13553;BME280;6847;48.830;9.116;2023-09-19T13:19:36;97855.03;;;34.12;32.09
13553;BME280;6847;48.830;9.116;2023-09-19T13:22:04;97851.53;;;33.69;32.43
13553;BME280;6847;48.830;9.116;2023-09-19T13:24:31;97821.84;;;33.05;32.60
13553;BME280;6847;48.830;9.116;2023-09-19T13:27:01;97843.84;;;32.83;32.29
13553;BME280;6847;48.830;9.116;2023-09-19T13:29:29;97847.28;;;32.71;32.37
13553;BME280;6847;48.830;9.116;2023-09-19T13:31:57;97839.25;;;32.69;32.44
13553;BME280;6847;48.830;9.116;2023-09-19T13:34:34;97844.41;;;32.75;32.30
13553;BME280;6847;48.830;9.116;2023-09-19T13:37:05;97761.75;;;32.06;32.28
13553;BME280;6847;48.830;9.116;2023-09-19T13:39:32;97836.53;;;32.39;32.10
13553;BME280;6847;48.830;9.116;2023-09-19T13:42:01;97825.41;;;32.32;32.15